sensor_id;sensor_type;location;lat;lon;timestamp;P1;durP1;ratioP1;P2;durP2;ratioP2
19183;SDS011;9724;51.194;6.856;2023-11-18T00:00:14;73.00;;;24.53;;
19183;SDS011;9724;51.194;6.856;2023-11-18T00:02:42;77.20;;;25.17;;
19183;SDS011;9724;51.194;6.856;2023-11-18T00:05:09;89.43;;;25.30;;
19183;SDS011;9724;51.194;6.856;2023-11-18T00:07:36;82.63;;;25.10;;
19183;SDS011;9724;51.194;6.856;2023-11-18T00:10:03;82.03;;;24.77;;
19183;SDS011;9724;51.194;6.856;2023-11-18T00:12:30;86.10;;;25.20;;
19183;SDS011;9724;51.194;6.856;2023-11-18T00:14:57;90.23;;;25.20;;
19183;SDS011;9724;51.194;6.856;2023-11-18T00:17:23;96.03;;;27.00;;
19183;SDS011;9724;51.194;6.856;2023-11-18T00:19:49;83.40;;;25.83;;
19183;SDS011;9724;51.194;6.856;2023-11-18T00:22:15;73.60;;;24.33;;
19183;SDS011;9724;51.194;6.856;2023-11-18T00:24:42;75.20;;;26.00;;
19183;SDS011;9724;51.194;6.856;2023-11-18T00:27:09;77.40;;;25.30;;
19183;SDS011;9724;51.194;6.856;2023-11-18T00:29:36;68.97;;;24.40;;
19183;SDS011;9724;51.194;6.856;2023-11-18T00:32:04;82.33;;;24.80;;
19183;SDS011;9724;51.194;6.856;2023-11-18T00:34:31;74.23;;;24.50;;
19183;SDS011;9724;51.194;6.856;2023-11-18T00:36:57;71.23;;;23.70;;
19183;SDS011;9724;51.194;6.856;2023-11-18T00:39:24;76.87;;;25.70;;
19183;SDS011;9724;51.194;6.856;2023-11-18T00:41:51;75.83;;;25.20;;
19183;SDS011;9724;51.194;6.856;2023-11-18T00:44:17;75.20;;;26.30;;
19183;SDS011;9724;51.194;6.856;2023-11-18T00:46:43;68.93;;;23.47;;
19183;SDS011;9724;51.194;6.856;2023-11-18T00:49:09;69.23;;;23.00;;
19183;SDS011;9724;51.194;6.856;2023-11-18T00:51:36;62.47;;;23.47;;
19183;SDS011;9724;51.194;6.856;2023-11-18T00:54:03;65.23;;;23.13;;
19183;SDS011;9724;51.194;6.856;2023-11-18T00:56:31;54.90;;;21.60;;
19183;SDS011;9724;51.194;6.856;2023-11-18T00:58:58;59.57;;;22.53;;
19183;SDS011;9724;51.194;6.856;2023-11-18T01:01:24;57.57;;;21.73;;
19183;SDS011;9724;51.194;6.856;2023-11-18T01:03:50;60.57;;;21.50;;
19183;SDS011;9724;51.194;6.856;2023-11-18T01:06:16;61.90;;;21.97;;
19183;SDS011;9724;51.194;6.856;2023-11-18T01:08:43;62.47;;;22.30;;
19183;SDS011;9724;51.194;6.856;2023-11-18T01:11:09;56.07;;;20.80;;
19183;SDS011;9724;51.194;6.856;2023-11-18T01:13:36;60.53;;;21.63;;
19183;SDS011;9724;51.194;6.856;2023-11-18T01:16:03;54.33;;;21.27;;
19183;SDS011;9724;51.194;6.856;2023-11-18T01:18:30;55.93;;;21.03;;
19183;SDS011;9724;51.194;6.856;2023-11-18T01:20:56;53.47;;;21.57;;
19183;SDS011;9724;51.194;6.856;2023-11-18T01:23:24;60.43;;;21.23;;
19183;SDS011;9724;51.194;6.856;2023-11-18T01:25:50;53.73;;;20.47;;
19183;SDS011;9724;51.194;6.856;2023-11-18T01:28:16;60.03;;;20.50;;
19183;SDS011;9724;51.194;6.856;2023-11-18T01:30:43;54.80;;;20.00;;
19183;SDS011;9724;51.194;6.856;2023-11-18T01:33:10;52.43;;;19.40;;
19183;SDS011;9724;51.194;6.856;2023-11-18T01:35:38;50.93;;;19.27;;
19183;SDS011;9724;51.194;6.856;2023-11-18T01:38:04;57.37;;;20.13;;
19183;SDS011;9724;51.194;6.856;2023-11-18T01:40:30;56.13;;;21.03;;
19183;SDS011;9724;51.194;6.856;2023-11-18T01:42:58;57.37;;;20.57;;
19183;SDS011;9724;51.194;6.856;2023-11-18T01:45:24;55.40;;;20.57;;
19183;SDS011;9724;51.194;6.856;2023-11-18T01:47:52;57.67;;;20.53;;
19183;SDS011;9724;51.194;6.856;2023-11-18T01:50:19;52.63;;;19.90;;
19183;SDS011;9724;51.194;6.856;2023-11-18T01:52:46;55.53;;;20.10;;
19183;SDS011;9724;51.194;6.856;2023-11-18T01:55:13;59.67;;;20.40;;
19183;SDS011;9724;51.194;6.856;2023-11-18T01:57:39;58.33;;;19.70;;
19183;SDS011;9724;51.194;6.856;2023-11-18T02:00:09;59.33;;;20.03;;
19183;SDS011;9724;51.194;6.856;2023-11-18T02:02:37;57.13;;;20.50;;
19183;SDS011;9724;51.194;6.856;2023-11-18T02:05:03;52.00;;;18.97;;
19183;SDS011;9724;51.194;6.856;2023-11-18T02:07:32;53.90;;;21.17;;
19183;SDS011;9724;51.194;6.856;2023-11-18T02:09:59;58.33;;;21.13;;
19183;SDS011;9724;51.194;6.856;2023-11-18T02:12:27;54.40;;;20.27;;
19183;SDS011;9724;51.194;6.856;2023-11-18T02:14:59;49.13;;;20.00;;
19183;SDS011;9724;51.194;6.856;2023-11-18T02:17:26;49.77;;;18.97;;
19183;SDS011;9724;51.194;6.856;2023-11-18T02:19:55;56.53;;;20.40;;
19183;SDS011;9724;51.194;6.856;2023-11-18T02:22:22;48.00;;;18.97;;
19183;SDS011;9724;51.194;6.856;2023-11-18T02:24:50;44.60;;;18.13;;
19183;SDS011;9724;51.194;6.856;2023-11-18T02:27:17;45.17;;;17.87;;
19183;SDS011;9724;51.194;6.856;2023-11-18T02:29:46;44.53;;;18.20;;
19183;SDS011;9724;51.194;6.856;2023-11-18T02:32:15;45.73;;;18.00;;
19183;SDS011;9724;51.194;6.856;2023-11-18T02:34:53;39.73;;;17.17;;
19183;SDS011;9724;51.194;6.856;2023-11-18T02:37:24;48.10;;;18.37;;
19183;SDS011;9724;51.194;6.856;2023-11-18T02:39:52;43.30;;;17.53;;
19183;SDS011;9724;51.194;6.856;2023-11-18T02:42:23;46.03;;;18.57;;
19183;SDS011;9724;51.194;6.856;2023-11-18T02:44:50;44.77;;;16.73;;
19183;SDS011;9724;51.194;6.856;2023-11-18T02:47:25;44.87;;;18.03;;
19183;SDS011;9724;51.194;6.856;2023-11-18T02:49:53;47.73;;;18.27;;
19183;SDS011;9724;51.194;6.856;2023-11-18T02:52:20;41.53;;;17.03;;
19183;SDS011;9724;51.194;6.856;2023-11-18T02:54:46;47.00;;;18.50;;
19183;SDS011;9724;51.194;6.856;2023-11-18T02:57:12;37.67;;;16.97;;
19183;SDS011;9724;51.194;6.856;2023-11-18T02:59:40;45.17;;;17.07;;
19183;SDS011;9724;51.194;6.856;2023-11-18T03:02:06;47.57;;;16.97;;
19183;SDS011;9724;51.194;6.856;2023-11-18T03:04:33;42.97;;;17.40;;
19183;SDS011;9724;51.194;6.856;2023-11-18T03:06:59;37.57;;;17.10;;
19183;SDS011;9724;51.194;6.856;2023-11-18T03:09:26;40.33;;;16.80;;
19183;SDS011;9724;51.194;6.856;2023-11-18T03:11:53;37.20;;;15.83;;
19183;SDS011;9724;51.194;6.856;2023-11-18T03:14:20;36.67;;;17.10;;
19183;SDS011;9724;51.194;6.856;2023-11-18T03:16:47;36.03;;;16.40;;
19183;SDS011;9724;51.194;6.856;2023-11-18T03:19:13;34.17;;;15.90;;
19183;SDS011;9724;51.194;6.856;2023-11-18T03:21:39;34.83;;;15.67;;
19183;SDS011;9724;51.194;6.856;2023-11-18T03:24:06;35.90;;;16.13;;
19183;SDS011;9724;51.194;6.856;2023-11-18T03:26:33;33.40;;;15.70;;
19183;SDS011;9724;51.194;6.856;2023-11-18T03:28:59;34.00;;;16.40;;
19183;SDS011;9724;51.194;6.856;2023-11-18T03:31:25;37.23;;;16.27;;
19183;SDS011;9724;51.194;6.856;2023-11-18T03:33:53;32.77;;;14.87;;
19183;SDS011;9724;51.194;6.856;2023-11-18T03:36:19;35.57;;;15.30;;
19183;SDS011;9724;51.194;6.856;2023-11-18T03:38:45;33.80;;;15.40;;
19183;SDS011;9724;51.194;6.856;2023-11-18T03:41:11;35.40;;;15.33;;
19183;SDS011;9724;51.194;6.856;2023-11-18T03:43:38;33.57;;;15.03;;
19183;SDS011;9724;51.194;6.856;2023-11-18T03:46:05;33.33;;;15.03;;
19183;SDS011;9724;51.194;6.856;2023-11-18T03:48:32;31.03;;;14.43;;
19183;SDS011;9724;51.194;6.856;2023-11-18T03:50:59;32.10;;;14.37;;
19183;SDS011;9724;51.194;6.856;2023-11-18T03:53:26;31.63;;;14.60;;
19183;SDS011;9724;51.194;6.856;2023-11-18T03:55:52;35.37;;;14.60;;
19183;SDS011;9724;51.194;6.856;2023-11-18T03:58:19;34.63;;;15.23;;
19183;SDS011;9724;51.194;6.856;2023-11-18T04:00:45;33.83;;;14.90;;
19183;SDS011;9724;51.194;6.856;2023-11-18T04:03:11;34.43;;;14.83;;
19183;SDS011;9724;51.194;6.856;2023-11-18T04:05:37;31.93;;;14.90;;
19183;SDS011;9724;51.194;6.856;2023-11-18T04:08:05;30.17;;;13.80;;
19183;SDS011;9724;51.194;6.856;2023-11-18T04:10:32;34.60;;;15.30;;
19183;SDS011;9724;51.194;6.856;2023-11-18T04:12:58;32.90;;;14.40;;
19183;SDS011;9724;51.194;6.856;2023-11-18T04:15:24;29.67;;;13.63;;
19183;SDS011;9724;51.194;6.856;2023-11-18T04:17:52;30.73;;;14.27;;
19183;SDS011;9724;51.194;6.856;2023-11-18T04:20:18;34.30;;;14.23;;
19183;SDS011;9724;51.194;6.856;2023-11-18T04:22:45;28.83;;;13.83;;
19183;SDS011;9724;51.194;6.856;2023-11-18T04:25:12;30.60;;;13.80;;
19183;SDS011;9724;51.194;6.856;2023-11-18T04:27:38;31.13;;;13.73;;
19183;SDS011;9724;51.194;6.856;2023-11-18T04:30:08;34.57;;;14.10;;
19183;SDS011;9724;51.194;6.856;2023-11-18T04:32:35;31.87;;;13.53;;
19183;SDS011;9724;51.194;6.856;2023-11-18T04:35:04;33.00;;;13.90;;
19183;SDS011;9724;51.194;6.856;2023-11-18T04:37:32;31.77;;;14.07;;
19183;SDS011;9724;51.194;6.856;2023-11-18T04:39:59;31.10;;;14.00;;
19183;SDS011;9724;51.194;6.856;2023-11-18T04:42:26;30.83;;;13.70;;
19183;SDS011;9724;51.194;6.856;2023-11-18T04:44:55;28.90;;;13.47;;
19183;SDS011;9724;51.194;6.856;2023-11-18T04:47:21;33.20;;;15.00;;
19183;SDS011;9724;51.194;6.856;2023-11-18T04:49:47;32.70;;;13.70;;
19183;SDS011;9724;51.194;6.856;2023-11-18T04:52:14;27.87;;;13.47;;
19183;SDS011;9724;51.194;6.856;2023-11-18T04:54:40;28.67;;;13.87;;
19183;SDS011;9724;51.194;6.856;2023-11-18T04:57:06;30.83;;;14.20;;
19183;SDS011;9724;51.194;6.856;2023-11-18T04:59:35;34.60;;;14.00;;
19183;SDS011;9724;51.194;6.856;2023-11-18T05:02:01;26.73;;;13.23;;
19183;SDS011;9724;51.194;6.856;2023-11-18T05:04:28;34.50;;;13.70;;
19183;SDS011;9724;51.194;6.856;2023-11-18T05:06:55;25.77;;;12.27;;
19183;SDS011;9724;51.194;6.856;2023-11-18T05:09:21;33.33;;;14.10;;
19183;SDS011;9724;51.194;6.856;2023-11-18T05:11:47;30.23;;;13.47;;
19183;SDS011;9724;51.194;6.856;2023-11-18T05:14:13;30.63;;;13.97;;
19183;SDS011;9724;51.194;6.856;2023-11-18T05:16:42;36.40;;;14.83;;
19183;SDS011;9724;51.194;6.856;2023-11-18T05:19:09;29.27;;;13.50;;
19183;SDS011;9724;51.194;6.856;2023-11-18T05:21:35;30.93;;;13.93;;
19183;SDS011;9724;51.194;6.856;2023-11-18T05:24:02;34.70;;;15.57;;
19183;SDS011;9724;51.194;6.856;2023-11-18T05:26:28;34.83;;;14.60;;
19183;SDS011;9724;51.194;6.856;2023-11-18T05:28:55;34.63;;;14.80;;
19183;SDS011;9724;51.194;6.856;2023-11-18T05:31:21;34.40;;;15.13;;
19183;SDS011;9724;51.194;6.856;2023-11-18T05:33:48;35.63;;;14.90;;
19183;SDS011;9724;51.194;6.856;2023-11-18T05:36:17;32.37;;;14.00;;
19183;SDS011;9724;51.194;6.856;2023-11-18T05:38:52;35.00;;;14.50;;
19183;SDS011;9724;51.194;6.856;2023-11-18T05:41:19;35.40;;;14.80;;
19183;SDS011;9724;51.194;6.856;2023-11-18T05:43:53;33.10;;;15.07;;
19183;SDS011;9724;51.194;6.856;2023-11-18T05:46:22;33.70;;;14.37;;
19183;SDS011;9724;51.194;6.856;2023-11-18T05:48:52;33.77;;;14.60;;
19183;SDS011;9724;51.194;6.856;2023-11-18T05:51:19;33.33;;;15.43;;
19183;SDS011;9724;51.194;6.856;2023-11-18T05:53:46;32.53;;;15.03;;
19183;SDS011;9724;51.194;6.856;2023-11-18T05:56:13;32.30;;;14.10;;
19183;SDS011;9724;51.194;6.856;2023-11-18T05:58:39;34.10;;;15.63;;
19183;SDS011;9724;51.194;6.856;2023-11-18T06:01:06;36.00;;;16.00;;
19183;SDS011;9724;51.194;6.856;2023-11-18T06:03:33;30.13;;;14.47;;
19183;SDS011;9724;51.194;6.856;2023-11-18T06:06:01;40.63;;;16.33;;
19183;SDS011;9724;51.194;6.856;2023-11-18T06:08:27;32.83;;;15.10;;
19183;SDS011;9724;51.194;6.856;2023-11-18T06:10:54;33.07;;;15.03;;
19183;SDS011;9724;51.194;6.856;2023-11-18T06:13:22;32.83;;;14.93;;
19183;SDS011;9724;51.194;6.856;2023-11-18T06:15:48;37.03;;;15.40;;
19183;SDS011;9724;51.194;6.856;2023-11-18T06:18:15;36.53;;;16.20;;
19183;SDS011;9724;51.194;6.856;2023-11-18T06:20:41;32.90;;;14.67;;
19183;SDS011;9724;51.194;6.856;2023-11-18T06:23:08;33.57;;;15.53;;
19183;SDS011;9724;51.194;6.856;2023-11-18T06:25:35;35.87;;;15.70;;
19183;SDS011;9724;51.194;6.856;2023-11-18T06:28:02;33.90;;;15.23;;
19183;SDS011;9724;51.194;6.856;2023-11-18T06:30:29;37.53;;;15.27;;
19183;SDS011;9724;51.194;6.856;2023-11-18T06:32:56;36.23;;;16.20;;
19183;SDS011;9724;51.194;6.856;2023-11-18T06:35:22;35.20;;;15.97;;
19183;SDS011;9724;51.194;6.856;2023-11-18T06:37:48;31.93;;;15.20;;
19183;SDS011;9724;51.194;6.856;2023-11-18T06:40:15;35.27;;;14.73;;
19183;SDS011;9724;51.194;6.856;2023-11-18T06:42:46;32.43;;;15.27;;
19183;SDS011;9724;51.194;6.856;2023-11-18T06:45:13;34.80;;;15.83;;
19183;SDS011;9724;51.194;6.856;2023-11-18T06:47:40;34.37;;;15.97;;
19183;SDS011;9724;51.194;6.856;2023-11-18T06:50:08;31.83;;;15.10;;
19183;SDS011;9724;51.194;6.856;2023-11-18T06:52:36;32.10;;;15.37;;
19183;SDS011;9724;51.194;6.856;2023-11-18T06:55:08;32.83;;;14.77;;
19183;SDS011;9724;51.194;6.856;2023-11-18T06:57:35;32.93;;;15.43;;
19183;SDS011;9724;51.194;6.856;2023-11-18T07:00:02;35.00;;;15.07;;
19183;SDS011;9724;51.194;6.856;2023-11-18T07:02:33;28.63;;;13.87;;
19183;SDS011;9724;51.194;6.856;2023-11-18T07:04:59;36.33;;;15.33;;
19183;SDS011;9724;51.194;6.856;2023-11-18T07:07:26;33.30;;;14.87;;
19183;SDS011;9724;51.194;6.856;2023-11-18T07:09:52;36.67;;;15.00;;
19183;SDS011;9724;51.194;6.856;2023-11-18T07:12:18;30.00;;;14.00;;
19183;SDS011;9724;51.194;6.856;2023-11-18T07:14:47;30.73;;;14.73;;
19183;SDS011;9724;51.194;6.856;2023-11-18T07:17:13;30.23;;;14.23;;
19183;SDS011;9724;51.194;6.856;2023-11-18T07:19:39;33.83;;;15.23;;
19183;SDS011;9724;51.194;6.856;2023-11-18T07:22:06;34.73;;;14.60;;
19183;SDS011;9724;51.194;6.856;2023-11-18T07:24:32;37.63;;;16.13;;
19183;SDS011;9724;51.194;6.856;2023-11-18T07:26:58;31.70;;;15.67;;
19183;SDS011;9724;51.194;6.856;2023-11-18T07:29:25;28.60;;;14.10;;
19183;SDS011;9724;51.194;6.856;2023-11-18T07:31:53;31.03;;;14.33;;
19183;SDS011;9724;51.194;6.856;2023-11-18T07:34:20;27.80;;;14.13;;
19183;SDS011;9724;51.194;6.856;2023-11-18T07:36:47;36.47;;;15.93;;
19183;SDS011;9724;51.194;6.856;2023-11-18T07:39:13;31.10;;;15.40;;
19183;SDS011;9724;51.194;6.856;2023-11-18T07:41:41;33.87;;;15.60;;
19183;SDS011;9724;51.194;6.856;2023-11-18T07:44:07;32.73;;;14.10;;
19183;SDS011;9724;51.194;6.856;2023-11-18T07:46:36;29.70;;;13.73;;
19183;SDS011;9724;51.194;6.856;2023-11-18T07:49:04;30.00;;;14.40;;
19183;SDS011;9724;51.194;6.856;2023-11-18T07:51:32;26.83;;;13.83;;
19183;SDS011;9724;51.194;6.856;2023-11-18T07:53:58;29.87;;;15.07;;
19183;SDS011;9724;51.194;6.856;2023-11-18T07:56:25;31.57;;;14.50;;
19183;SDS011;9724;51.194;6.856;2023-11-18T07:58:52;26.73;;;13.77;;
19183;SDS011;9724;51.194;6.856;2023-11-18T08:01:20;28.87;;;13.90;;
19183;SDS011;9724;51.194;6.856;2023-11-18T08:03:47;27.30;;;13.33;;
19183;SDS011;9724;51.194;6.856;2023-11-18T08:06:14;30.73;;;13.27;;
19183;SDS011;9724;51.194;6.856;2023-11-18T08:08:40;26.57;;;13.27;;
19183;SDS011;9724;51.194;6.856;2023-11-18T08:11:06;28.77;;;13.27;;
19183;SDS011;9724;51.194;6.856;2023-11-18T08:13:33;24.10;;;13.10;;
19183;SDS011;9724;51.194;6.856;2023-11-18T08:15:59;25.50;;;12.63;;
19183;SDS011;9724;51.194;6.856;2023-11-18T08:18:26;25.20;;;12.83;;
19183;SDS011;9724;51.194;6.856;2023-11-18T08:20:54;26.73;;;13.50;;
19183;SDS011;9724;51.194;6.856;2023-11-18T08:23:22;27.70;;;12.97;;
19183;SDS011;9724;51.194;6.856;2023-11-18T08:25:49;22.47;;;11.13;;
19183;SDS011;9724;51.194;6.856;2023-11-18T08:28:16;24.37;;;12.23;;
19183;SDS011;9724;51.194;6.856;2023-11-18T08:30:42;23.90;;;12.43;;
19183;SDS011;9724;51.194;6.856;2023-11-18T08:33:09;24.40;;;12.43;;
19183;SDS011;9724;51.194;6.856;2023-11-18T08:35:36;22.57;;;11.37;;
19183;SDS011;9724;51.194;6.856;2023-11-18T08:38:02;18.30;;;11.57;;
19183;SDS011;9724;51.194;6.856;2023-11-18T08:40:30;21.83;;;11.33;;
19183;SDS011;9724;51.194;6.856;2023-11-18T08:42:56;22.53;;;11.17;;
19183;SDS011;9724;51.194;6.856;2023-11-18T08:45:24;20.60;;;10.73;;
19183;SDS011;9724;51.194;6.856;2023-11-18T08:47:53;21.90;;;10.83;;
19183;SDS011;9724;51.194;6.856;2023-11-18T08:50:20;19.83;;;10.47;;
19183;SDS011;9724;51.194;6.856;2023-11-18T08:52:49;19.73;;;10.80;;
19183;SDS011;9724;51.194;6.856;2023-11-18T08:55:18;20.23;;;10.30;;
19183;SDS011;9724;51.194;6.856;2023-11-18T08:57:47;18.70;;;10.03;;
19183;SDS011;9724;51.194;6.856;2023-11-18T09:00:18;19.50;;;9.67;;
19183;SDS011;9724;51.194;6.856;2023-11-18T09:02:59;17.20;;;8.67;;
19183;SDS011;9724;51.194;6.856;2023-11-18T09:05:26;19.00;;;9.13;;
19183;SDS011;9724;51.194;6.856;2023-11-18T09:07:57;15.10;;;9.47;;
19183;SDS011;9724;51.194;6.856;2023-11-18T09:10:23;18.87;;;9.57;;
19183;SDS011;9724;51.194;6.856;2023-11-18T09:12:50;17.17;;;9.20;;
19183;SDS011;9724;51.194;6.856;2023-11-18T09:15:21;15.00;;;8.73;;
19183;SDS011;9724;51.194;6.856;2023-11-18T09:17:48;19.20;;;8.40;;
19183;SDS011;9724;51.194;6.856;2023-11-18T09:20:14;16.37;;;8.90;;
19183;SDS011;9724;51.194;6.856;2023-11-18T09:22:43;21.90;;;8.50;;
19183;SDS011;9724;51.194;6.856;2023-11-18T09:25:11;14.00;;;8.90;;
19183;SDS011;9724;51.194;6.856;2023-11-18T09:27:37;15.10;;;8.97;;
19183;SDS011;9724;51.194;6.856;2023-11-18T09:30:06;15.03;;;8.33;;
19183;SDS011;9724;51.194;6.856;2023-11-18T09:32:39;19.73;;;8.50;;
19183;SDS011;9724;51.194;6.856;2023-11-18T09:35:07;12.87;;;8.17;;
19183;SDS011;9724;51.194;6.856;2023-11-18T09:37:38;10.83;;;6.80;;
19183;SDS011;9724;51.194;6.856;2023-11-18T09:40:05;16.70;;;7.53;;
19183;SDS011;9724;51.194;6.856;2023-11-18T09:42:36;13.00;;;7.87;;
19183;SDS011;9724;51.194;6.856;2023-11-18T09:45:04;12.20;;;7.57;;
19183;SDS011;9724;51.194;6.856;2023-11-18T09:47:41;15.87;;;7.93;;
19183;SDS011;9724;51.194;6.856;2023-11-18T09:50:12;15.33;;;8.30;;
19183;SDS011;9724;51.194;6.856;2023-11-18T09:52:48;14.03;;;8.03;;
19183;SDS011;9724;51.194;6.856;2023-11-18T09:55:21;16.87;;;7.93;;
19183;SDS011;9724;51.194;6.856;2023-11-18T09:57:55;16.40;;;8.60;;
19183;SDS011;9724;51.194;6.856;2023-11-18T10:00:25;16.07;;;8.07;;
19183;SDS011;9724;51.194;6.856;2023-11-18T10:02:53;13.23;;;8.47;;
19183;SDS011;9724;51.194;6.856;2023-11-18T10:05:22;16.60;;;7.90;;
19183;SDS011;9724;51.194;6.856;2023-11-18T10:07:52;16.40;;;8.60;;
19183;SDS011;9724;51.194;6.856;2023-11-18T10:10:19;16.37;;;8.10;;
19183;SDS011;9724;51.194;6.856;2023-11-18T10:12:46;17.63;;;7.80;;
19183;SDS011;9724;51.194;6.856;2023-11-18T10:15:18;14.37;;;7.80;;
19183;SDS011;9724;51.194;6.856;2023-11-18T10:17:49;9.43;;;6.77;;
19183;SDS011;9724;51.194;6.856;2023-11-18T10:20:23;16.10;;;7.47;;
19183;SDS011;9724;51.194;6.856;2023-11-18T10:23:10;12.67;;;7.30;;
19183;SDS011;9724;51.194;6.856;2023-11-18T10:25:40;12.67;;;7.50;;
19183;SDS011;9724;51.194;6.856;2023-11-18T10:28:10;16.20;;;8.20;;
19183;SDS011;9724;51.194;6.856;2023-11-18T10:30:47;12.33;;;7.50;;
19183;SDS011;9724;51.194;6.856;2023-11-18T10:33:14;11.87;;;7.33;;
19183;SDS011;9724;51.194;6.856;2023-11-18T10:35:51;17.30;;;7.20;;
19183;SDS011;9724;51.194;6.856;2023-11-18T10:38:18;14.03;;;8.03;;
19183;SDS011;9724;51.194;6.856;2023-11-18T10:40:44;12.90;;;7.47;;
19183;SDS011;9724;51.194;6.856;2023-11-18T10:43:11;14.27;;;8.13;;
19183;SDS011;9724;51.194;6.856;2023-11-18T10:45:37;13.40;;;7.77;;
19183;SDS011;9724;51.194;6.856;2023-11-18T10:48:07;14.60;;;7.90;;
19183;SDS011;9724;51.194;6.856;2023-11-18T10:50:35;14.07;;;8.27;;
19183;SDS011;9724;51.194;6.856;2023-11-18T10:53:01;13.13;;;7.10;;
19183;SDS011;9724;51.194;6.856;2023-11-18T10:55:34;13.60;;;7.73;;
19183;SDS011;9724;51.194;6.856;2023-11-18T10:58:02;17.93;;;7.30;;
19183;SDS011;9724;51.194;6.856;2023-11-18T11:00:37;16.97;;;8.07;;
19183;SDS011;9724;51.194;6.856;2023-11-18T11:03:13;10.97;;;7.43;;
19183;SDS011;9724;51.194;6.856;2023-11-18T11:05:40;11.53;;;7.60;;
19183;SDS011;9724;51.194;6.856;2023-11-18T11:08:09;11.40;;;7.73;;
19183;SDS011;9724;51.194;6.856;2023-11-18T11:10:39;15.73;;;8.40;;
19183;SDS011;9724;51.194;6.856;2023-11-18T11:13:07;16.90;;;7.80;;
19183;SDS011;9724;51.194;6.856;2023-11-18T11:15:36;19.77;;;8.00;;
19183;SDS011;9724;51.194;6.856;2023-11-18T11:18:20;18.80;;;8.63;;
19183;SDS011;9724;51.194;6.856;2023-11-18T11:20:53;13.70;;;8.10;;
19183;SDS011;9724;51.194;6.856;2023-11-18T11:23:25;17.63;;;8.60;;
19183;SDS011;9724;51.194;6.856;2023-11-18T11:25:57;14.07;;;8.53;;
19183;SDS011;9724;51.194;6.856;2023-11-18T11:28:32;13.07;;;8.17;;
19183;SDS011;9724;51.194;6.856;2023-11-18T11:31:03;16.40;;;8.20;;
19183;SDS011;9724;51.194;6.856;2023-11-18T11:33:42;15.60;;;8.57;;
19183;SDS011;9724;51.194;6.856;2023-11-18T11:36:11;15.17;;;8.07;;
19183;SDS011;9724;51.194;6.856;2023-11-18T11:38:42;18.43;;;8.50;;
19183;SDS011;9724;51.194;6.856;2023-11-18T11:41:13;13.60;;;7.73;;
19183;SDS011;9724;51.194;6.856;2023-11-18T11:43:45;11.57;;;7.73;;
19183;SDS011;9724;51.194;6.856;2023-11-18T11:46:12;10.10;;;7.10;;
19183;SDS011;9724;51.194;6.856;2023-11-18T11:48:39;16.00;;;8.37;;
19183;SDS011;9724;51.194;6.856;2023-11-18T11:51:16;13.33;;;7.33;;
19183;SDS011;9724;51.194;6.856;2023-11-18T11:53:47;13.70;;;7.27;;
19183;SDS011;9724;51.194;6.856;2023-11-18T11:56:39;17.37;;;6.93;;
19183;SDS011;9724;51.194;6.856;2023-11-18T11:59:06;17.33;;;7.63;;
19183;SDS011;9724;51.194;6.856;2023-11-18T12:01:36;13.07;;;7.60;;
19183;SDS011;9724;51.194;6.856;2023-11-18T12:04:04;14.10;;;7.70;;
19183;SDS011;9724;51.194;6.856;2023-11-18T12:06:33;15.07;;;7.80;;
19183;SDS011;9724;51.194;6.856;2023-11-18T12:09:01;14.47;;;7.87;;
19183;SDS011;9724;51.194;6.856;2023-11-18T12:11:32;13.47;;;8.53;;
19183;SDS011;9724;51.194;6.856;2023-11-18T12:13:59;13.73;;;8.07;;
19183;SDS011;9724;51.194;6.856;2023-11-18T12:19:29;20.77;;;8.50;;
19183;SDS011;9724;51.194;6.856;2023-11-18T12:21:56;14.63;;;7.80;;
19183;SDS011;9724;51.194;6.856;2023-11-18T12:24:26;12.70;;;7.70;;
19183;SDS011;9724;51.194;6.856;2023-11-18T12:26:54;14.77;;;7.93;;
19183;SDS011;9724;51.194;6.856;2023-11-18T12:29:30;14.40;;;7.23;;
19183;SDS011;9724;51.194;6.856;2023-11-18T12:31:58;16.80;;;8.47;;
19183;SDS011;9724;51.194;6.856;2023-11-18T12:34:24;14.20;;;7.30;;
19183;SDS011;9724;51.194;6.856;2023-11-18T12:36:58;18.17;;;7.90;;
19183;SDS011;9724;51.194;6.856;2023-11-18T12:42:58;12.40;;;7.30;;
19183;SDS011;9724;51.194;6.856;2023-11-18T12:45:32;13.70;;;7.37;;
19183;SDS011;9724;51.194;6.856;2023-11-18T12:48:20;12.57;;;7.10;;
19183;SDS011;9724;51.194;6.856;2023-11-18T12:50:52;12.63;;;6.43;;
19183;SDS011;9724;51.194;6.856;2023-11-18T12:53:22;14.63;;;6.70;;
19183;SDS011;9724;51.194;6.856;2023-11-18T12:55:50;11.70;;;6.53;;
19183;SDS011;9724;51.194;6.856;2023-11-18T12:58:19;10.97;;;6.47;;
19183;SDS011;9724;51.194;6.856;2023-11-18T13:00:48;15.20;;;7.00;;
19183;SDS011;9724;51.194;6.856;2023-11-18T13:03:15;11.07;;;6.27;;
19183;SDS011;9724;51.194;6.856;2023-11-18T13:05:43;13.17;;;6.87;;
19183;SDS011;9724;51.194;6.856;2023-11-18T13:08:10;13.73;;;6.60;;
19183;SDS011;9724;51.194;6.856;2023-11-18T13:10:39;9.93;;;5.73;;
19183;SDS011;9724;51.194;6.856;2023-11-18T13:13:05;12.53;;;5.53;;
19183;SDS011;9724;51.194;6.856;2023-11-18T13:15:34;10.73;;;6.10;;
19183;SDS011;9724;51.194;6.856;2023-11-18T13:18:02;12.07;;;6.63;;
19183;SDS011;9724;51.194;6.856;2023-11-18T13:20:31;10.47;;;5.67;;
19183;SDS011;9724;51.194;6.856;2023-11-18T13:23:00;9.93;;;5.73;;
19183;SDS011;9724;51.194;6.856;2023-11-18T13:25:34;14.97;;;5.83;;
19183;SDS011;9724;51.194;6.856;2023-11-18T13:28:03;11.70;;;5.10;;
19183;SDS011;9724;51.194;6.856;2023-11-18T13:30:30;13.00;;;5.53;;
19183;SDS011;9724;51.194;6.856;2023-11-18T13:32:57;10.63;;;5.67;;
19183;SDS011;9724;51.194;6.856;2023-11-18T13:35:23;11.63;;;5.90;;
19183;SDS011;9724;51.194;6.856;2023-11-18T13:37:49;13.33;;;6.50;;
19183;SDS011;9724;51.194;6.856;2023-11-18T13:40:16;8.17;;;5.07;;
19183;SDS011;9724;51.194;6.856;2023-11-18T13:42:43;9.53;;;5.23;;
19183;SDS011;9724;51.194;6.856;2023-11-18T13:45:12;8.80;;;4.97;;
19183;SDS011;9724;51.194;6.856;2023-11-18T13:47:59;9.73;;;4.57;;
19183;SDS011;9724;51.194;6.856;2023-11-18T13:50:26;5.83;;;3.93;;
19183;SDS011;9724;51.194;6.856;2023-11-18T13:52:52;4.47;;;4.00;;
19183;SDS011;9724;51.194;6.856;2023-11-18T13:55:19;9.37;;;4.37;;
19183;SDS011;9724;51.194;6.856;2023-11-18T13:57:52;5.57;;;3.23;;
19183;SDS011;9724;51.194;6.856;2023-11-18T14:00:22;6.63;;;4.20;;
19183;SDS011;9724;51.194;6.856;2023-11-18T14:02:55;6.57;;;4.03;;
19183;SDS011;9724;51.194;6.856;2023-11-18T14:05:22;7.70;;;3.73;;
19183;SDS011;9724;51.194;6.856;2023-11-18T14:07:49;8.27;;;3.80;;
19183;SDS011;9724;51.194;6.856;2023-11-18T14:10:16;5.83;;;3.40;;
19183;SDS011;9724;51.194;6.856;2023-11-18T14:13:01;10.50;;;3.87;;
19183;SDS011;9724;51.194;6.856;2023-11-18T14:15:29;6.03;;;3.13;;
19183;SDS011;9724;51.194;6.856;2023-11-18T14:17:55;4.73;;;3.43;;
19183;SDS011;9724;51.194;6.856;2023-11-18T14:20:23;8.40;;;3.73;;
19183;SDS011;9724;51.194;6.856;2023-11-18T14:22:49;4.97;;;3.43;;
19183;SDS011;9724;51.194;6.856;2023-11-18T14:25:19;10.77;;;3.70;;
19183;SDS011;9724;51.194;6.856;2023-11-18T14:27:49;11.30;;;3.73;;
19183;SDS011;9724;51.194;6.856;2023-11-18T14:30:15;8.13;;;3.70;;
19183;SDS011;9724;51.194;6.856;2023-11-18T14:32:42;4.43;;;3.30;;
19183;SDS011;9724;51.194;6.856;2023-11-18T14:35:08;6.47;;;3.70;;
19183;SDS011;9724;51.194;6.856;2023-11-18T14:37:37;8.30;;;4.50;;
19183;SDS011;9724;51.194;6.856;2023-11-18T14:40:08;8.30;;;4.10;;
19183;SDS011;9724;51.194;6.856;2023-11-18T14:42:38;7.07;;;4.20;;
19183;SDS011;9724;51.194;6.856;2023-11-18T14:45:07;7.90;;;4.10;;
19183;SDS011;9724;51.194;6.856;2023-11-18T14:47:34;9.17;;;4.20;;
19183;SDS011;9724;51.194;6.856;2023-11-18T14:50:01;9.70;;;4.23;;
19183;SDS011;9724;51.194;6.856;2023-11-18T14:52:28;7.30;;;3.80;;